sensor_id;sensor_type;location;lat;lon;timestamp;temperature;humidity
24412;DHT22;12544;46.760;15.942;2023-11-21T00:00:55;5.00;99.90
24412;DHT22;12544;46.760;15.942;2023-11-21T00:03:21;5.00;99.90
24412;DHT22;12544;46.760;15.942;2023-11-21T00:05:48;5.00;99.90
24412;DHT22;12544;46.760;15.942;2023-11-21T00:08:14;4.90;99.90
24412;DHT22;12544;46.760;15.942;2023-11-21T00:10:40;4.90;99.90
24412;DHT22;12544;46.760;15.942;2023-11-21T00:13:05;4.90;99.90
24412;DHT22;12544;46.760;15.942;2023-11-21T00:15:31;4.80;99.90
24412;DHT22;12544;46.760;15.942;2023-11-21T00:17:57;4.80;99.90
24412;DHT22;12544;46.760;15.942;2023-11-21T00:20:22;4.80;99.90
24412;DHT22;12544;46.760;15.942;2023-11-21T00:22:48;4.80;99.90
24412;DHT22;12544;46.760;15.942;2023-11-21T00:25:14;4.80;99.90
24412;DHT22;12544;46.760;15.942;2023-11-21T00:27:41;4.90;99.90
24412;DHT22;12544;46.760;15.942;2023-11-21T00:30:07;4.90;99.90
24412;DHT22;12544;46.760;15.942;2023-11-21T00:32:36;4.90;99.90
24412;DHT22;12544;46.760;15.942;2023-11-21T00:35:02;4.90;99.90
24412;DHT22;12544;46.760;15.942;2023-11-21T00:37:28;4.90;99.90
24412;DHT22;12544;46.760;15.942;2023-11-21T00:39:53;5.00;99.90
24412;DHT22;12544;46.760;15.942;2023-11-21T00:42:19;5.00;99.90
24412;DHT22;12544;46.760;15.942;2023-11-21T00:44:45;5.00;99.90
24412;DHT22;12544;46.760;15.942;2023-11-21T00:47:10;4.90;99.90
24412;DHT22;12544;46.760;15.942;2023-11-21T00:49:36;4.90;99.90
24412;DHT22;12544;46.760;15.942;2023-11-21T00:52:02;4.90;99.90
24412;DHT22;12544;46.760;15.942;2023-11-21T00:54:28;5.10;99.90
24412;DHT22;12544;46.760;15.942;2023-11-21T00:56:53;5.30;99.90
24412;DHT22;12544;46.760;15.942;2023-11-21T00:59:19;5.40;99.90
24412;DHT22;12544;46.760;15.942;2023-11-21T01:01:45;5.50;99.90
24412;DHT22;12544;46.760;15.942;2023-11-21T01:04:10;5.40;99.90
24412;DHT22;12544;46.760;15.942;2023-11-21T01:06:36;5.20;99.90
24412;DHT22;12544;46.760;15.942;2023-11-21T01:09:02;5.00;99.90
24412;DHT22;12544;46.760;15.942;2023-11-21T01:11:33;4.90;99.90
24412;DHT22;12544;46.760;15.942;2023-11-21T01:14:01;4.80;99.90
24412;DHT22;12544;46.760;15.942;2023-11-21T01:16:28;4.80;99.90
24412;DHT22;12544;46.760;15.942;2023-11-21T01:18:54;4.80;99.90
24412;DHT22;12544;46.760;15.942;2023-11-21T01:21:20;4.80;99.90
24412;DHT22;12544;46.760;15.942;2023-11-21T01:23:45;4.80;99.90
24412;DHT22;12544;46.760;15.942;2023-11-21T01:26:13;4.90;99.90
24412;DHT22;12544;46.760;15.942;2023-11-21T01:28:38;4.90;99.90
24412;DHT22;12544;46.760;15.942;2023-11-21T01:31:04;4.90;99.90
24412;DHT22;12544;46.760;15.942;2023-11-21T01:33:30;5.00;99.90
24412;DHT22;12544;46.760;15.942;2023-11-21T01:35:55;5.10;99.90
24412;DHT22;12544;46.760;15.942;2023-11-21T01:38:21;5.10;99.90
24412;DHT22;12544;46.760;15.942;2023-11-21T01:40:47;5.20;99.90
24412;DHT22;12544;46.760;15.942;2023-11-21T01:43:13;5.20;99.90
24412;DHT22;12544;46.760;15.942;2023-11-21T01:45:38;5.20;99.90
24412;DHT22;12544;46.760;15.942;2023-11-21T01:48:04;5.30;99.90
24412;DHT22;12544;46.760;15.942;2023-11-21T01:50:32;5.40;99.90
24412;DHT22;12544;46.760;15.942;2023-11-21T01:52:59;5.40;99.90
24412;DHT22;12544;46.760;15.942;2023-11-21T01:55:26;5.40;99.90
24412;DHT22;12544;46.760;15.942;2023-11-21T01:57:53;5.40;99.90
24412;DHT22;12544;46.760;15.942;2023-11-21T02:00:19;5.40;99.90
24412;DHT22;12544;46.760;15.942;2023-11-21T02:02:46;5.40;99.90
24412;DHT22;12544;46.760;15.942;2023-11-21T02:05:14;5.40;99.90
24412;DHT22;12544;46.760;15.942;2023-11-21T02:07:40;5.40;99.90
24412;DHT22;12544;46.760;15.942;2023-11-21T02:10:08;5.50;99.90
24412;DHT22;12544;46.760;15.942;2023-11-21T02:12:34;5.50;99.90
24412;DHT22;12544;46.760;15.942;2023-11-21T02:15:05;5.50;99.90
24412;DHT22;12544;46.760;15.942;2023-11-21T02:17:35;5.50;99.90
24412;DHT22;12544;46.760;15.942;2023-11-21T02:20:02;5.50;99.90
24412;DHT22;12544;46.760;15.942;2023-11-21T02:22:32;5.50;99.90
24412;DHT22;12544;46.760;15.942;2023-11-21T02:25:03;5.50;99.90
24412;DHT22;12544;46.760;15.942;2023-11-21T02:27:28;5.50;99.90
24412;DHT22;12544;46.760;15.942;2023-11-21T02:29:54;5.60;99.90
24412;DHT22;12544;46.760;15.942;2023-11-21T02:32:20;5.60;99.90
24412;DHT22;12544;46.760;15.942;2023-11-21T02:34:48;5.50;99.90
24412;DHT22;12544;46.760;15.942;2023-11-21T02:37:14;5.50;99.90
24412;DHT22;12544;46.760;15.942;2023-11-21T02:39:39;5.50;99.90
24412;DHT22;12544;46.760;15.942;2023-11-21T02:42:05;5.50;99.90
24412;DHT22;12544;46.760;15.942;2023-11-21T02:44:31;5.50;99.90
24412;DHT22;12544;46.760;15.942;2023-11-21T02:46:56;5.60;99.90
24412;DHT22;12544;46.760;15.942;2023-11-21T02:49:24;5.60;99.90
24412;DHT22;12544;46.760;15.942;2023-11-21T02:51:53;5.70;99.90
24412;DHT22;12544;46.760;15.942;2023-11-21T02:54:20;5.70;99.90
24412;DHT22;12544;46.760;15.942;2023-11-21T02:56:47;5.70;99.90
24412;DHT22;12544;46.760;15.942;2023-11-21T02:59:13;5.80;99.90
24412;DHT22;12544;46.760;15.942;2023-11-21T03:01:39;5.80;99.90
24412;DHT22;12544;46.760;15.942;2023-11-21T03:04:04;5.80;99.90
24412;DHT22;12544;46.760;15.942;2023-11-21T03:06:30;5.90;99.90
24412;DHT22;12544;46.760;15.942;2023-11-21T03:08:56;5.80;99.90
24412;DHT22;12544;46.760;15.942;2023-11-21T03:11:21;5.80;99.90
24412;DHT22;12544;46.760;15.942;2023-11-21T03:13:47;5.70;99.90
24412;DHT22;12544;46.760;15.942;2023-11-21T03:16:13;5.70;99.90
24412;DHT22;12544;46.760;15.942;2023-11-21T03:18:39;5.70;99.90
24412;DHT22;12544;46.760;15.942;2023-11-21T03:21:05;5.70;99.90
24412;DHT22;12544;46.760;15.942;2023-11-21T03:23:31;5.60;99.90
24412;DHT22;12544;46.760;15.942;2023-11-21T03:25:57;5.70;99.90
24412;DHT22;12544;46.760;15.942;2023-11-21T03:28:23;5.60;99.90
24412;DHT22;12544;46.760;15.942;2023-11-21T03:30:49;5.60;99.90
24412;DHT22;12544;46.760;15.942;2023-11-21T03:33:15;5.60;99.90
24412;DHT22;12544;46.760;15.942;2023-11-21T03:35:40;5.60;99.90
24412;DHT22;12544;46.760;15.942;2023-11-21T03:38:07;5.60;99.90
24412;DHT22;12544;46.760;15.942;2023-11-21T03:40:33;5.60;99.90
24412;DHT22;12544;46.760;15.942;2023-11-21T03:42:58;5.60;99.90
24412;DHT22;12544;46.760;15.942;2023-11-21T03:45:24;5.70;99.90
24412;DHT22;12544;46.760;15.942;2023-11-21T03:47:50;5.70;99.90
24412;DHT22;12544;46.760;15.942;2023-11-21T03:50:15;5.80;99.90
24412;DHT22;12544;46.760;15.942;2023-11-21T03:52:41;5.70;99.90
24412;DHT22;12544;46.760;15.942;2023-11-21T03:55:08;5.80;99.90
24412;DHT22;12544;46.760;15.942;2023-11-21T03:57:33;5.80;99.90
24412;DHT22;12544;46.760;15.942;2023-11-21T03:59:59;5.90;99.90
24412;DHT22;12544;46.760;15.942;2023-11-21T04:02:25;5.80;99.90
24412;DHT22;12544;46.760;15.942;2023-11-21T04:04:51;5.90;99.90
24412;DHT22;12544;46.760;15.942;2023-11-21T04:07:17;5.90;99.90
24412;DHT22;12544;46.760;15.942;2023-11-21T04:09:43;5.90;99.90
24412;DHT22;12544;46.760;15.942;2023-11-21T04:12:08;5.90;99.90
24412;DHT22;12544;46.760;15.942;2023-11-21T04:14:35;5.90;99.90
24412;DHT22;12544;46.760;15.942;2023-11-21T04:17:00;6.00;99.90
24412;DHT22;12544;46.760;15.942;2023-11-21T04:19:26;5.90;99.90
24412;DHT22;12544;46.760;15.942;2023-11-21T04:21:52;5.90;99.90
24412;DHT22;12544;46.760;15.942;2023-11-21T04:24:17;5.90;99.90
24412;DHT22;12544;46.760;15.942;2023-11-21T04:26:46;5.90;99.90
24412;DHT22;12544;46.760;15.942;2023-11-21T04:29:12;5.90;99.90
24412;DHT22;12544;46.760;15.942;2023-11-21T04:31:37;5.90;99.90
24412;DHT22;12544;46.760;15.942;2023-11-21T04:34:03;5.90;99.90
24412;DHT22;12544;46.760;15.942;2023-11-21T04:36:30;6.00;99.90
24412;DHT22;12544;46.760;15.942;2023-11-21T04:38:59;6.00;99.90
24412;DHT22;12544;46.760;15.942;2023-11-21T04:41:25;6.00;99.90
24412;DHT22;12544;46.760;15.942;2023-11-21T04:43:50;5.90;99.90
24412;DHT22;12544;46.760;15.942;2023-11-21T04:46:16;5.90;99.90
24412;DHT22;12544;46.760;15.942;2023-11-21T04:48:42;5.90;99.90
24412;DHT22;12544;46.760;15.942;2023-11-21T04:51:07;5.80;99.90
24412;DHT22;12544;46.760;15.942;2023-11-21T04:53:33;5.80;99.90
24412;DHT22;12544;46.760;15.942;2023-11-21T04:56:00;5.80;99.90
24412;DHT22;12544;46.760;15.942;2023-11-21T04:58:25;5.90;99.90
24412;DHT22;12544;46.760;15.942;2023-11-21T05:00:51;5.90;99.90
24412;DHT22;12544;46.760;15.942;2023-11-21T05:03:17;5.90;99.90
24412;DHT22;12544;46.760;15.942;2023-11-21T05:05:42;5.90;99.90
24412;DHT22;12544;46.760;15.942;2023-11-21T05:08:08;5.90;99.90
24412;DHT22;12544;46.760;15.942;2023-11-21T05:10:33;5.90;99.90
24412;DHT22;12544;46.760;15.942;2023-11-21T05:12:59;5.90;99.90
24412;DHT22;12544;46.760;15.942;2023-11-21T05:15:25;5.90;99.90
24412;DHT22;12544;46.760;15.942;2023-11-21T05:17:52;6.00;99.90
24412;DHT22;12544;46.760;15.942;2023-11-21T05:20:19;6.00;99.90
24412;DHT22;12544;46.760;15.942;2023-11-21T05:22:47;6.10;99.90
24412;DHT22;12544;46.760;15.942;2023-11-21T05:25:14;6.10;99.90
24412;DHT22;12544;46.760;15.942;2023-11-21T05:27:39;6.10;99.90
24412;DHT22;12544;46.760;15.942;2023-11-21T05:30:06;6.10;99.90
24412;DHT22;12544;46.760;15.942;2023-11-21T05:32:33;6.10;99.90
24412;DHT22;12544;46.760;15.942;2023-11-21T05:34:59;6.10;99.90
24412;DHT22;12544;46.760;15.942;2023-11-21T05:37:24;6.20;99.90
24412;DHT22;12544;46.760;15.942;2023-11-21T05:39:53;6.20;99.90
24412;DHT22;12544;46.760;15.942;2023-11-21T05:42:18;6.30;99.90
24412;DHT22;12544;46.760;15.942;2023-11-21T05:44:44;6.40;99.90
24412;DHT22;12544;46.760;15.942;2023-11-21T05:47:10;6.50;99.90
24412;DHT22;12544;46.760;15.942;2023-11-21T05:49:36;6.50;99.90
24412;DHT22;12544;46.760;15.942;2023-11-21T05:52:02;6.60;99.90
24412;DHT22;12544;46.760;15.942;2023-11-21T05:54:28;6.60;99.90
24412;DHT22;12544;46.760;15.942;2023-11-21T05:56:54;6.70;99.90
24412;DHT22;12544;46.760;15.942;2023-11-21T05:59:19;6.70;99.90
24412;DHT22;12544;46.760;15.942;2023-11-21T06:01:45;6.70;99.90
24412;DHT22;12544;46.760;15.942;2023-11-21T06:04:11;6.70;99.90
24412;DHT22;12544;46.760;15.942;2023-11-21T06:06:38;6.70;99.90
24412;DHT22;12544;46.760;15.942;2023-11-21T06:09:04;6.80;99.90
24412;DHT22;12544;46.760;15.942;2023-11-21T06:11:31;6.80;99.90
24412;DHT22;12544;46.760;15.942;2023-11-21T06:13:57;6.80;99.90
24412;DHT22;12544;46.760;15.942;2023-11-21T06:16:23;6.90;99.90
24412;DHT22;12544;46.760;15.942;2023-11-21T06:18:49;6.90;99.90
24412;DHT22;12544;46.760;15.942;2023-11-21T06:21:15;6.80;99.90
24412;DHT22;12544;46.760;15.942;2023-11-21T06:23:42;6.70;99.90
24412;DHT22;12544;46.760;15.942;2023-11-21T06:26:08;6.60;99.90
24412;DHT22;12544;46.760;15.942;2023-11-21T06:28:35;6.50;99.90
24412;DHT22;12544;46.760;15.942;2023-11-21T06:34:23;6.40;99.90
24412;DHT22;12544;46.760;15.942;2023-11-21T06:36:49;6.30;99.90
24412;DHT22;12544;46.760;15.942;2023-11-21T06:39:14;6.20;99.90
24412;DHT22;12544;46.760;15.942;2023-11-21T06:41:42;6.10;99.90
24412;DHT22;12544;46.760;15.942;2023-11-21T06:44:08;6.10;99.90
24412;DHT22;12544;46.760;15.942;2023-11-21T06:46:34;6.00;99.90
24412;DHT22;12544;46.760;15.942;2023-11-21T06:48:59;6.10;99.90
24412;DHT22;12544;46.760;15.942;2023-11-21T06:51:25;6.00;99.90
24412;DHT22;12544;46.760;15.942;2023-11-21T06:53:51;6.00;99.90
24412;DHT22;12544;46.760;15.942;2023-11-21T06:56:20;6.00;99.90
24412;DHT22;12544;46.760;15.942;2023-11-21T06:58:46;6.10;99.90
24412;DHT22;12544;46.760;15.942;2023-11-21T07:01:12;6.10;99.90
24412;DHT22;12544;46.760;15.942;2023-11-21T07:03:39;6.10;99.90
24412;DHT22;12544;46.760;15.942;2023-11-21T07:06:05;6.20;99.90
24412;DHT22;12544;46.760;15.942;2023-11-21T07:08:31;6.20;99.90
24412;DHT22;12544;46.760;15.942;2023-11-21T07:14:18;6.30;99.90
24412;DHT22;12544;46.760;15.942;2023-11-21T07:16:46;6.30;99.90
24412;DHT22;12544;46.760;15.942;2023-11-21T07:19:12;6.40;99.90
24412;DHT22;12544;46.760;15.942;2023-11-21T07:24:59;6.50;99.90
24412;DHT22;12544;46.760;15.942;2023-11-21T07:27:25;6.50;99.90
24412;DHT22;12544;46.760;15.942;2023-11-21T07:29:50;6.60;99.90
24412;DHT22;12544;46.760;15.942;2023-11-21T07:32:16;6.60;99.90
24412;DHT22;12544;46.760;15.942;2023-11-21T07:34:41;6.60;99.90
24412;DHT22;12544;46.760;15.942;2023-11-21T07:37:07;6.70;99.90
24412;DHT22;12544;46.760;15.942;2023-11-21T07:39:35;6.80;99.90
24412;DHT22;12544;46.760;15.942;2023-11-21T07:42:01;6.80;99.90
24412;DHT22;12544;46.760;15.942;2023-11-21T07:44:28;6.90;99.90
24412;DHT22;12544;46.760;15.942;2023-11-21T07:50:16;6.90;99.90
24412;DHT22;12544;46.760;15.942;2023-11-21T07:52:42;7.00;99.90
24412;DHT22;12544;46.760;15.942;2023-11-21T07:58:30;7.00;99.90
24412;DHT22;12544;46.760;15.942;2023-11-21T08:00:56;7.10;99.90
24412;DHT22;12544;46.760;15.942;2023-11-21T08:03:22;7.10;99.90
24412;DHT22;12544;46.760;15.942;2023-11-21T08:05:47;7.20;99.90
24412;DHT22;12544;46.760;15.942;2023-11-21T08:11:35;7.30;99.90
24412;DHT22;12544;46.760;15.942;2023-11-21T08:14:00;7.30;99.90
24412;DHT22;12544;46.760;15.942;2023-11-21T08:16:26;7.40;99.90
24412;DHT22;12544;46.760;15.942;2023-11-21T08:18:52;7.50;99.90
24412;DHT22;12544;46.760;15.942;2023-11-21T08:21:19;7.50;99.90
24412;DHT22;12544;46.760;15.942;2023-11-21T08:23:45;7.50;99.90
24412;DHT22;12544;46.760;15.942;2023-11-21T08:26:11;7.50;99.90
24412;DHT22;12544;46.760;15.942;2023-11-21T08:28:37;7.40;99.90
24412;DHT22;12544;46.760;15.942;2023-11-21T08:31:02;7.40;99.90
24412;DHT22;12544;46.760;15.942;2023-11-21T08:33:29;7.40;99.90
24412;DHT22;12544;46.760;15.942;2023-11-21T08:35:55;7.50;99.90
24412;DHT22;12544;46.760;15.942;2023-11-21T08:38:21;7.60;99.90
24412;DHT22;12544;46.760;15.942;2023-11-21T08:40:46;7.60;99.90
24412;DHT22;12544;46.760;15.942;2023-11-21T08:43:12;7.60;99.90
24412;DHT22;12544;46.760;15.942;2023-11-21T08:45:39;7.60;99.90
24412;DHT22;12544;46.760;15.942;2023-11-21T08:48:05;7.60;99.90
24412;DHT22;12544;46.760;15.942;2023-11-21T08:50:31;7.60;99.90
24412;DHT22;12544;46.760;15.942;2023-11-21T08:52:56;7.70;99.90
24412;DHT22;12544;46.760;15.942;2023-11-21T08:55:22;7.70;99.90
24412;DHT22;12544;46.760;15.942;2023-11-21T08:57:48;7.80;99.90
24412;DHT22;12544;46.760;15.942;2023-11-21T09:00:14;7.90;99.90
24412;DHT22;12544;46.760;15.942;2023-11-21T09:02:44;8.00;99.90
24412;DHT22;12544;46.760;15.942;2023-11-21T09:05:10;8.00;99.90
24412;DHT22;12544;46.760;15.942;2023-11-21T09:07:38;8.00;99.90
24412;DHT22;12544;46.760;15.942;2023-11-21T09:10:04;8.00;99.90
24412;DHT22;12544;46.760;15.942;2023-11-21T09:12:33;8.00;99.90
24412;DHT22;12544;46.760;15.942;2023-11-21T09:15:03;8.00;99.90
24412;DHT22;12544;46.760;15.942;2023-11-21T09:17:30;7.90;99.90
24412;DHT22;12544;46.760;15.942;2023-11-21T09:19:56;7.80;99.90
24412;DHT22;12544;46.760;15.942;2023-11-21T09:22:22;7.80;99.90
24412;DHT22;12544;46.760;15.942;2023-11-21T09:24:50;7.80;99.90
24412;DHT22;12544;46.760;15.942;2023-11-21T09:27:16;7.80;99.90
24412;DHT22;12544;46.760;15.942;2023-11-21T09:29:43;7.80;99.90
24412;DHT22;12544;46.760;15.942;2023-11-21T09:32:08;7.80;99.90
24412;DHT22;12544;46.760;15.942;2023-11-21T09:34:38;7.90;99.90
24412;DHT22;12544;46.760;15.942;2023-11-21T09:37:04;7.90;99.90
24412;DHT22;12544;46.760;15.942;2023-11-21T09:39:32;8.00;99.90
24412;DHT22;12544;46.760;15.942;2023-11-21T09:42:15;8.00;99.90
24412;DHT22;12544;46.760;15.942;2023-11-21T09:44:58;8.10;99.90
24412;DHT22;12544;46.760;15.942;2023-11-21T09:47:27;8.00;99.90
24412;DHT22;12544;46.760;15.942;2023-11-21T09:49:54;8.00;99.90
24412;DHT22;12544;46.760;15.942;2023-11-21T09:52:27;8.00;99.90
24412;DHT22;12544;46.760;15.942;2023-11-21T09:54:54;7.90;99.90
24412;DHT22;12544;46.760;15.942;2023-11-21T09:57:23;7.90;99.90
24412;DHT22;12544;46.760;15.942;2023-11-21T09:59:53;7.90;99.90
24412;DHT22;12544;46.760;15.942;2023-11-21T10:02:33;8.00;99.90
24412;DHT22;12544;46.760;15.942;2023-11-21T10:05:02;8.00;99.90
24412;DHT22;12544;46.760;15.942;2023-11-21T10:07:31;8.10;99.90
24412;DHT22;12544;46.760;15.942;2023-11-21T10:09:59;8.20;99.90
24412;DHT22;12544;46.760;15.942;2023-11-21T10:12:25;8.30;99.90
24412;DHT22;12544;46.760;15.942;2023-11-21T10:14:52;8.30;99.90
24412;DHT22;12544;46.760;15.942;2023-11-21T10:17:20;8.30;99.90
24412;DHT22;12544;46.760;15.942;2023-11-21T10:19:47;8.40;99.90
24412;DHT22;12544;46.760;15.942;2023-11-21T10:22:15;8.40;99.90
24412;DHT22;12544;46.760;15.942;2023-11-21T10:24:41;8.50;99.90
24412;DHT22;12544;46.760;15.942;2023-11-21T10:27:08;8.60;99.90
24412;DHT22;12544;46.760;15.942;2023-11-21T10:29:34;8.60;99.90
24412;DHT22;12544;46.760;15.942;2023-11-21T10:32:05;8.60;99.90
24412;DHT22;12544;46.760;15.942;2023-11-21T10:34:31;8.60;99.90
24412;DHT22;12544;46.760;15.942;2023-11-21T10:36:57;8.70;99.90
24412;DHT22;12544;46.760;15.942;2023-11-21T10:39:24;8.70;99.90
24412;DHT22;12544;46.760;15.942;2023-11-21T10:41:54;8.80;99.90
24412;DHT22;12544;46.760;15.942;2023-11-21T10:44:20;8.80;99.90
24412;DHT22;12544;46.760;15.942;2023-11-21T10:46:54;8.90;99.90
24412;DHT22;12544;46.760;15.942;2023-11-21T10:49:26;8.90;99.90
24412;DHT22;12544;46.760;15.942;2023-11-21T10:51:53;8.90;99.90
24412;DHT22;12544;46.760;15.942;2023-11-21T10:54:20;8.90;99.90
24412;DHT22;12544;46.760;15.942;2023-11-21T10:56:49;8.90;99.90
24412;DHT22;12544;46.760;15.942;2023-11-21T10:59:17;8.90;99.90
24412;DHT22;12544;46.760;15.942;2023-11-21T11:01:44;9.00;99.90
24412;DHT22;12544;46.760;15.942;2023-11-21T11:04:12;9.00;99.90
24412;DHT22;12544;46.760;15.942;2023-11-21T11:06:54;9.10;99.90
24412;DHT22;12544;46.760;15.942;2023-11-21T11:09:22;9.20;99.90
24412;DHT22;12544;46.760;15.942;2023-11-21T11:11:47;9.30;99.90
24412;DHT22;12544;46.760;15.942;2023-11-21T11:14:14;9.30;99.90
24412;DHT22;12544;46.760;15.942;2023-11-21T11:16:41;9.30;99.90
24412;DHT22;12544;46.760;15.942;2023-11-21T11:19:09;9.40;99.90
24412;DHT22;12544;46.760;15.942;2023-11-21T11:21:48;9.40;99.90
24412;DHT22;12544;46.760;15.942;2023-11-21T11:27:40;9.40;99.90
24412;DHT22;12544;46.760;15.942;2023-11-21T11:38:09;9.60;99.90
24412;DHT22;12544;46.760;15.942;2023-11-21T11:40:40;9.50;99.90
24412;DHT22;12544;46.760;15.942;2023-11-21T11:43:07;9.60;99.90
24412;DHT22;12544;46.760;15.942;2023-11-21T11:45:34;9.60;99.90
24412;DHT22;12544;46.760;15.942;2023-11-21T11:48:01;9.50;99.90
24412;DHT22;12544;46.760;15.942;2023-11-21T11:50:27;9.60;99.90
24412;DHT22;12544;46.760;15.942;2023-11-21T11:52:53;9.60;99.90
24412;DHT22;12544;46.760;15.942;2023-11-21T11:55:23;9.70;99.90
24412;DHT22;12544;46.760;15.942;2023-11-21T11:57:53;9.70;99.90
24412;DHT22;12544;46.760;15.942;2023-11-21T12:00:33;9.70;99.90
24412;DHT22;12544;46.760;15.942;2023-11-21T12:03:03;9.70;99.90
24412;DHT22;12544;46.760;15.942;2023-11-21T12:05:31;9.80;99.90
24412;DHT22;12544;46.760;15.942;2023-11-21T12:08:03;9.80;99.90
24412;DHT22;12544;46.760;15.942;2023-11-21T12:10:37;9.80;99.90
24412;DHT22;12544;46.760;15.942;2023-11-21T12:13:09;9.80;99.90
24412;DHT22;12544;46.760;15.942;2023-11-21T12:15:36;9.80;99.90
24412;DHT22;12544;46.760;15.942;2023-11-21T12:18:02;9.90;99.90
24412;DHT22;12544;46.760;15.942;2023-11-21T12:20:30;9.90;99.90
24412;DHT22;12544;46.760;15.942;2023-11-21T12:22:59;9.90;99.90
24412;DHT22;12544;46.760;15.942;2023-11-21T12:25:27;9.90;99.90
24412;DHT22;12544;46.760;15.942;2023-11-21T12:27:55;9.90;99.90
24412;DHT22;12544;46.760;15.942;2023-11-21T12:30:22;9.90;99.90
24412;DHT22;12544;46.760;15.942;2023-11-21T12:32:52;9.90;99.90
24412;DHT22;12544;46.760;15.942;2023-11-21T12:35:19;9.90;99.90
24412;DHT22;12544;46.760;15.942;2023-11-21T12:37:45;9.90;99.90
24412;DHT22;12544;46.760;15.942;2023-11-21T12:40:13;10.00;99.90
24412;DHT22;12544;46.760;15.942;2023-11-21T12:42:47;10.00;99.90
24412;DHT22;12544;46.760;15.942;2023-11-21T12:48:02;10.10;99.90
24412;DHT22;12544;46.760;15.942;2023-11-21T12:50:35;10.10;99.90
24412;DHT22;12544;46.760;15.942;2023-11-21T12:53:09;10.10;99.90
24412;DHT22;12544;46.760;15.942;2023-11-21T12:55:37;10.10;99.90
24412;DHT22;12544;46.760;15.942;2023-11-21T12:58:07;10.10;99.90
24412;DHT22;12544;46.760;15.942;2023-11-21T13:00:44;10.10;99.90
24412;DHT22;12544;46.760;15.942;2023-11-21T13:03:12;10.10;99.90
24412;DHT22;12544;46.760;15.942;2023-11-21T13:05:42;10.10;99.90
24412;DHT22;12544;46.760;15.942;2023-11-21T13:08:11;10.10;99.90
24412;DHT22;12544;46.760;15.942;2023-11-21T13:10:40;10.00;99.90
24412;DHT22;12544;46.760;15.942;2023-11-21T13:13:09;10.00;99.90
24412;DHT22;12544;46.760;15.942;2023-11-21T13:15:39;10.00;99.90
24412;DHT22;12544;46.760;15.942;2023-11-21T13:18:06;10.00;99.90
24412;DHT22;12544;46.760;15.942;2023-11-21T13:20:31;10.00;99.90
24412;DHT22;12544;46.760;15.942;2023-11-21T13:26:19;9.90;99.90
24412;DHT22;12544;46.760;15.942;2023-11-21T13:28:47;9.90;99.90
24412;DHT22;12544;46.760;15.942;2023-11-21T13:31:12;9.90;99.90
24412;DHT22;12544;46.760;15.942;2023-11-21T13:33:49;9.90;99.90
24412;DHT22;12544;46.760;15.942;2023-11-21T13:36:24;9.80;99.90
24412;DHT22;12544;46.760;15.942;2023-11-21T13:38:51;9.80;99.90
24412;DHT22;12544;46.760;15.942;2023-11-21T13:41:18;9.80;99.90
24412;DHT22;12544;46.760;15.942;2023-11-21T13:43:44;9.80;99.90
24412;DHT22;12544;46.760;15.942;2023-11-21T13:46:24;9.70;99.90
24412;DHT22;12544;46.760;15.942;2023-11-21T13:48:50;9.70;99.90
24412;DHT22;12544;46.760;15.942;2023-11-21T13:51:20;9.70;99.90
24412;DHT22;12544;46.760;15.942;2023-11-21T13:53:54;9.70;99.90
24412;DHT22;12544;46.760;15.942;2023-11-21T13:56:20;9.70;99.90
24412;DHT22;12544;46.760;15.942;2023-11-21T13:58:49;9.70;99.90
24412;DHT22;12544;46.760;15.942;2023-11-21T14:01:19;9.60;99.90
24412;DHT22;12544;46.760;15.942;2023-11-21T14:04:02;9.70;99.90
24412;DHT22;12544;46.760;15.942;2023-11-21T14:06:49;9.60;99.90
24412;DHT22;12544;46.760;15.942;2023-11-21T14:09:21;9.60;99.90
24412;DHT22;12544;46.760;15.942;2023-11-21T14:12:01;9.60;99.90
24412;DHT22;12544;46.760;15.942;2023-11-21T14:14:31;9.60;99.90
24412;DHT22;12544;46.760;15.942;2023-11-21T14:16:57;9.50;99.90
24412;DHT22;12544;46.760;15.942;2023-11-21T14:19:24;9.50;99.90
24412;DHT22;12544;46.760;15.942;2023-11-21T14:21:53;9.50;99.90
24412;DHT22;12544;46.760;15.942;2023-11-21T14:24:19;9.50;99.90
24412;DHT22;12544;46.760;15.942;2023-11-21T14:26:46;9.50;99.90
24412;DHT22;12544;46.760;15.942;2023-11-21T14:29:13;9.50;99.90
24412;DHT22;12544;46.760;15.942;2023-11-21T14:31:41;9.50;99.90
24412;DHT22;12544;46.760;15.942;2023-11-21T14:34:07;9.50;99.90
24412;DHT22;12544;46.760;15.942;2023-11-21T14:36:34;9.50;99.90
24412;DHT22;12544;46.760;15.942;2023-11-21T14:39:00;9.40;99.90
24412;DHT22;12544;46.760;15.942;2023-11-21T14:41:25;9.40;99.90
24412;DHT22;12544;46.760;15.942;2023-11-21T14:43:53;9.30;99.90
24412;DHT22;12544;46.760;15.942;2023-11-21T14:49:42;9.30;99.90
24412;DHT22;12544;46.760;15.942;2023-11-21T14:52:19;9.20;99.90
24412;DHT22;12544;46.760;15.942;2023-11-21T14:55:07;9.20;99.90
24412;DHT22;12544;46.760;15.942;2023-11-21T14:57:57;9.20;99.90
24412;DHT22;12544;46.760;15.942;2023-11-21T15:00:27;9.10;99.90
24412;DHT22;12544;46.760;15.942;2023-11-21T15:02:59;9.00;99.90
24412;DHT22;12544;46.760;15.942;2023-11-21T15:08:55;8.90;99.90
24412;DHT22;12544;46.760;15.942;2023-11-21T15:15:05;8.80;99.90
24412;DHT22;12544;46.760;15.942;2023-11-21T15:17:36;8.80;99.90
24412;DHT22;12544;46.760;15.942;2023-11-21T15:20:03;8.70;99.90
24412;DHT22;12544;46.760;15.942;2023-11-21T15:22:32;8.70;99.90
24412;DHT22;12544;46.760;15.942;2023-11-21T15:24:58;8.70;99.90
24412;DHT22;12544;46.760;15.942;2023-11-21T15:27:24;8.60;99.90
24412;DHT22;12544;46.760;15.942;2023-11-21T15:29:50;8.60;99.90
24412;DHT22;12544;46.760;15.942;2023-11-21T15:32:16;8.60;99.90
24412;DHT22;12544;46.760;15.942;2023-11-21T15:34:41;8.60;99.90
24412;DHT22;12544;46.760;15.942;2023-11-21T15:37:08;8.50;99.90
24412;DHT22;12544;46.760;15.942;2023-11-21T15:39:37;8.50;99.90
24412;DHT22;12544;46.760;15.942;2023-11-21T15:42:04;8.50;99.90
24412;DHT22;12544;46.760;15.942;2023-11-21T15:44:32;8.40;99.90
24412;DHT22;12544;46.760;15.942;2023-11-21T15:46:59;8.30;99.90
24412;DHT22;12544;46.760;15.942;2023-11-21T15:49:24;8.30;99.90
24412;DHT22;12544;46.760;15.942;2023-11-21T15:52:11;8.30;99.90
24412;DHT22;12544;46.760;15.942;2023-11-21T15:54:37;8.30;99.90
24412;DHT22;12544;46.760;15.942;2023-11-21T15:57:03;8.30;99.90
24412;DHT22;12544;46.760;15.942;2023-11-21T15:59:30;8.20;99.90
24412;DHT22;12544;46.760;15.942;2023-11-21T16:01:57;8.20;99.90
24412;DHT22;12544;46.760;15.942;2023-11-21T16:04:23;8.20;99.90
24412;DHT22;12544;46.760;15.942;2023-11-21T16:06:52;8.20;99.90
24412;DHT22;12544;46.760;15.942;2023-11-21T16:09:18;8.10;99.90
24412;DHT22;12544;46.760;15.942;2023-11-21T16:11:49;8.20;99.90
24412;DHT22;12544;46.760;15.942;2023-11-21T16:14:19;8.20;99.90
24412;DHT22;12544;46.760;15.942;2023-11-21T16:16:51;8.20;99.90
24412;DHT22;12544;46.760;15.942;2023-11-21T16:19:16;8.30;99.90